Seas 11 — A8ZT4 — position and weather

sailwx.info

Track history (hours):
 
Tides and Currents Weather Stations Pressure Air Temp Water Temp Dewpoint Dewpoint Depression Visibility Wind Speed Wind Dir Waves Ship Positions

Seas 11

Last reported at 2017-Sep-12 07:25 UTC. Time now 2017-Sep-22 04:42 UTC.
Position N 30°21' E 032°22'.
Warning: this ship's position is 9 days out of date.

Length 190 m; draft 10.4 m.

Type: Cargo ship. MMSI: 636015294.

Date/timePositionNaut miles runAvg speedWind from/ knotsBaromVisibWave heightAir tempDewpointWater temp
2017-Sep-12 07:25N 30°21' E 032°22'0 0.0
2017-Sep-12 07:00N 30°21' E 032°22'0 0.0
2017-Sep-12 06:30N 30°21' E 032°22'0 0.1
2017-Sep-12 06:00N 30°21' E 032°22'0 0.0
2017-Sep-12 05:30N 30°21' E 032°22'0 0.2
2017-Sep-12 05:00N 30°21' E 032°22'4 5.7
2017-Sep-12 04:15N 30°25' E 032°21'310.5
2017-Sep-12 04:00N 30°28' E 032°21'510.4
2017-Sep-12 03:31N 30°33' E 032°19'6 6.2
2017-Sep-12 02:34N 30°38' E 032°20'4 9.0
2017-Sep-12 02:08N 30°42' E 032°21'1 8.9
2017-Sep-12 02:00N 30°43' E 032°20'5 8.7
2017-Sep-12 01:28N 30°48' E 032°19'18 9.2
2017-Sep-11 23:29N 31°06' E 032°19'16 8.7
2017-Sep-11 21:36N 31°22' E 032°23'1 6.4
2017-Sep-11 21:30N 31°23' E 032°23'3 3.7
2017-Sep-11 20:43N 31°22' E 032°19'1 3.0
2017-Sep-11 20:30N 31°22' E 032°19'0 0.5
2017-Sep-11 20:00N 31°22' E 032°19'0 0.0
2017-Sep-11 19:30N 31°22' E 032°19'0 0.0
2017-Sep-11 19:00N 31°22' E 032°19'0 0.0
2017-Sep-11 18:25N 31°22' E 032°19'0 0.0
2017-Sep-11 16:51N 31°22' E 032°19'0 0.0
2017-Sep-11 16:30N 31°22' E 032°19'0 0.0
2017-Sep-11 15:59N 31°22' E 032°19'0 0.0
2017-Sep-11 15:30N 31°22' E 032°19'0 0.0
2017-Sep-11 15:00N 31°22' E 032°19'0 0.0
2017-Sep-11 14:30N 31°22' E 032°19'0 0.0
2017-Sep-11 14:00N 31°22' E 032°19'0 0.2
2017-Sep-11 13:30N 31°22' E 032°19'1 2.2
2017-Sep-11 13:00N 31°22' E 032°20'2 2.3
2017-Sep-11 12:15N 31°24' E 032°21'1 3.5
2017-Sep-11 11:55N 31°25' E 032°21'3 6.5
2017-Sep-11 11:27N 31°28' E 032°20'3 5.9
2017-Sep-11 11:01N 31°30' E 032°18'510.2
2017-Sep-11 10:30N 31°32' E 032°13'611.0
2017-Sep-11 10:00N 31°36' E 032°08'4 8.6
2017-Sep-11 09:30N 31°39' E 032°05'611.5
2017-Sep-11 09:00N 31°43' E 031°60'612.3
2017-Sep-11 08:29N 31°47' E 031°54'813.0
2017-Sep-11 07:53N 31°51' E 031°46'712.9
2017-Sep-11 07:23N 31°55' E 031°40'512.9
2017-Sep-11 06:59N 31°57' E 031°35'612.8
2017-Sep-11 06:30N 32°01' E 031°29'612.5
2017-Sep-11 06:00N 32°04' E 031°22'612.4
2017-Sep-11 05:30N 32°07' E 031°16'612.4
2017-Sep-11 04:59N 32°11' E 031°10'1212.4
2017-Sep-11 04:01N 32°17' E 030°58'013.3
2017-Sep-11 04:00N 32°17' E 030°57'613.1
2017-Sep-11 03:30N 32°18' E 030°50'1013.2
2017-Sep-11 02:46N 32°21' E 030°39'413.2
2017-Sep-11 02:29N 32°22' E 030°34'613.0
2017-Sep-11 02:00N 32°23' E 030°27'613.0
2017-Sep-11 01:30N 32°24' E 030°20'1212.8
2017-Sep-11 00:32N 32°26' E 030°05'012.6
2017-Sep-11 00:30N 32°27' E 030°05'1412.6
2017-Sep-10 23:25N 32°29' E 029°49'  
2017-Sep-08 09:47N 35°48' E 014°58'312.5
2017-Sep-08 09:30N 35°49' E 014°54'611.1
2017-Sep-08 08:59N 35°53' E 014°49'2 2.2
2017-Sep-08 08:06N 35°54' E 014°47'0 0.0
2017-Sep-08 08:00N 35°54' E 014°47'0 0.0
2017-Sep-08 07:30N 35°54' E 014°47'0 0.1
2017-Sep-08 06:57N 35°54' E 014°47'0 0.1
2017-Sep-08 06:27N 35°54' E 014°47'0 0.1
2017-Sep-08 06:00N 35°54' E 014°47'0 0.1
2017-Sep-08 05:30N 35°54' E 014°47'0 0.1
2017-Sep-08 05:00N 35°54' E 014°47'0 0.1
2017-Sep-08 04:30N 35°54' E 014°47'0 0.1
2017-Sep-08 04:00N 35°54' E 014°47'0 0.3
2017-Sep-08 03:30N 35°54' E 014°47'0 0.7
2017-Sep-08 02:57N 35°54' E 014°47'2 4.7
2017-Sep-08 02:30N 35°56' E 014°47'4 6.5
2017-Sep-08 01:57N 35°59' E 014°44'510.9
2017-Sep-08 01:28N 36°03' E 014°39'611.2
2017-Sep-08 00:58N 36°07' E 014°34'612.5
2017-Sep-08 00:30N 36°10' E 014°28'713.0
2017-Sep-08 00:00N 36°14' E 014°21'713.2
2017-Sep-07 23:30N 36°16' E 014°14'612.9
2017-Sep-07 23:00N 36°18' E 014°07'612.9
2017-Sep-07 22:30N 36°21' E 013°59'712.9
2017-Sep-07 21:59N 36°24' E 013°52'612.9
2017-Sep-07 21:30N 36°27' E 013°45'612.9
2017-Sep-07 21:00N 36°29' E 013°37'612.6
2017-Sep-07 20:30N 36°32' E 013°30'712.7
2017-Sep-07 19:58N 36°34' E 013°22'712.6
2017-Sep-07 19:25N 36°37' E 013°14'512.6
2017-Sep-07 19:00N 36°39' E 013°08'612.5
2017-Sep-07 18:30N 36°42' E 013°01'612.4
2017-Sep-07 18:00N 36°44' E 012°54'612.5
2017-Sep-07 17:30N 36°47' E 012°47'612.6
2017-Sep-07 17:00N 36°49' E 012°40'612.6
2017-Sep-07 16:30N 36°52' E 012°33'712.9
2017-Sep-07 15:58N 36°55' E 012°25'613.1
2017-Sep-07 15:30N 36°57' E 012°18'19912.9
2017-Sep-07 00:07N 38°20' E 008°30'212.7
2017-Sep-06 23:58N 38°21' E 008°28'22312.6
2017-Sep-06 06:16N 41°34' E 006°01'513.3
2017-Sep-06 05:55N 41°38' E 005°59'613.3
2017-Sep-06 05:29N 41°44' E 005°56'613.3
2017-Sep-06 05:00N 41°49' E 005°52'713.3
2017-Sep-06 04:30N 41°55' E 005°49'2113.5
2017-Sep-06 02:59N 42°14' E 005°37'713.5
2017-Sep-06 02:27N 42°21' E 005°33'613.6
2017-Sep-06 02:00N 42°26' E 005°30'713.5
2017-Sep-06 01:30N 42°32' E 005°26'713.3
2017-Sep-06 01:00N 42°38' E 005°22'613.1
2017-Sep-06 00:31N 42°44' E 005°18'713.1
2017-Sep-06 00:01N 42°50' E 005°15'612.8
2017-Sep-05 23:30N 42°56' E 005°11'713.2
2017-Sep-05 23:01N 43°02' E 005°07'713.2
2017-Sep-05 22:30N 43°08' E 005°04'612.0
2017-Sep-05 22:00N 43°14' E 005°00'510.1
2017-Sep-05 21:30N 43°19' E 004°59'4 8.8
2017-Sep-05 21:00N 43°23' E 004°57'4 8.7
2017-Sep-05 20:30N 43°24' E 004°51'0 0.9
2017-Sep-05 19:56N 43°24' E 004°51'0 0.0
2017-Sep-05 19:29N 43°24' E 004°51'0 0.0
2017-Sep-05 18:59N 43°24' E 004°51'0 0.0
2017-Sep-05 18:29N 43°24' E 004°51'0 0.0
2017-Sep-05 17:59N 43°24' E 004°51'0 0.0
2017-Sep-05 17:29N 43°24' E 004°51'0 0.0
2017-Sep-05 16:53N 43°24' E 004°51'0 0.0
2017-Sep-05 16:29N 43°24' E 004°51'0 0.0
2017-Sep-05 15:59N 43°24' E 004°51'0 0.0
2017-Sep-05 15:29N 43°24' E 004°51'0 0.0
2017-Sep-05 14:59N 43°24' E 004°51'0 0.0
2017-Sep-05 14:29N 43°24' E 004°51'0 0.0
2017-Sep-05 14:00N 43°24' E 004°51'0 0.0
2017-Sep-05 13:29N 43°24' E 004°51'0 0.0
2017-Sep-05 12:59N 43°24' E 004°51'0 0.0
2017-Sep-05 12:29N 43°24' E 004°51'0 0.0
2017-Sep-05 11:59N 43°24' E 004°51'0 0.0
2017-Sep-05 11:26N 43°24' E 004°51'0 0.0
2017-Sep-05 10:56N 43°24' E 004°51'0 0.0
2017-Sep-05 10:29N 43°24' E 004°51'0 0.0
2017-Sep-05 09:59N 43°24' E 004°51'0 0.0
2017-Sep-05 09:26N 43°24' E 004°51'0 0.0
2017-Sep-05 08:59N 43°24' E 004°51'0 0.0
2017-Sep-05 08:29N 43°24' E 004°51'0 0.0
2017-Sep-05 07:59N 43°24' E 004°51'0 0.0
2017-Sep-05 07:29N 43°24' E 004°51'0 0.0
2017-Sep-05 06:59N 43°24' E 004°51'0 0.0
2017-Sep-05 06:29N 43°24' E 004°51'0 0.0
2017-Sep-05 05:59N 43°24' E 004°51'0 0.0
2017-Sep-05 05:29N 43°24' E 004°51'0 0.0
2017-Sep-05 04:59N 43°24' E 004°51'0 0.0
2017-Sep-05 04:29N 43°24' E 004°51'0 0.0
2017-Sep-05 03:59N 43°24' E 004°51'0 0.0
2017-Sep-05 03:29N 43°24' E 004°51'0 0.0
2017-Sep-05 02:59N 43°24' E 004°51'0 0.0
2017-Sep-05 02:26N 43°24' E 004°51'0 0.0
2017-Sep-05 01:59N 43°24' E 004°51'0 0.0
2017-Sep-05 01:26N 43°24' E 004°51'0 0.0
2017-Sep-05 00:59N 43°24' E 004°51'0 0.0
2017-Sep-05 00:29N 43°24' E 004°51'0 0.0
2017-Sep-04 23:56N 43°24' E 004°51'0 0.0
2017-Sep-04 23:30N 43°24' E 004°51'0 0.0
2017-Sep-04 22:59N 43°24' E 004°51'0 0.0
2017-Sep-04 22:29N 43°24' E 004°51'0 0.0
2017-Sep-04 21:56N 43°24' E 004°51'0 0.0
2017-Sep-04 21:29N 43°24' E 004°51'0 0.0
2017-Sep-04 20:56N 43°24' E 004°51'0 0.0
2017-Sep-04 20:29N 43°24' E 004°51'0 0.0
2017-Sep-04 19:56N 43°24' E 004°51'0 0.0
2017-Sep-04 19:29N 43°24' E 004°51'0 0.0
2017-Sep-04 18:56N 43°24' E 004°51'0 0.0
2017-Sep-04 18:26N 43°24' E 004°51'0 0.0
2017-Sep-04 17:59N 43°24' E 004°51'0 0.0
2017-Sep-04 17:26N 43°24' E 004°51'0 0.0
2017-Sep-04 16:59N 43°24' E 004°51'0 0.0
2017-Sep-04 16:29N 43°24' E 004°51'0 0.0
2017-Sep-04 15:59N 43°24' E 004°51'0 0.0
2017-Sep-04 15:29N 43°24' E 004°51'0 0.0
2017-Sep-04 14:59N 43°24' E 004°51'0 0.0
2017-Sep-04 14:26N 43°24' E 004°51'0 0.0
2017-Sep-04 13:59N 43°24' E 004°51'0 0.0
2017-Sep-04 13:29N 43°24' E 004°51'0 0.0
2017-Sep-04 12:59N 43°24' E 004°51'0 0.0
2017-Sep-04 12:29N 43°24' E 004°51'0 0.0
2017-Sep-04 11:59N 43°24' E 004°51'0 0.0
2017-Sep-04 11:29N 43°24' E 004°51'0 0.0
2017-Sep-04 10:59N 43°24' E 004°51'0 0.0
2017-Sep-04 10:29N 43°24' E 004°51'0 0.0
2017-Sep-04 09:59N 43°24' E 004°51'0 0.0
2017-Sep-04 09:29N 43°24' E 004°51'0 0.0
2017-Sep-04 08:59N 43°24' E 004°51'0 0.0
2017-Sep-04 08:29N 43°24' E 004°51'0 0.0
2017-Sep-04 07:59N 43°24' E 004°51'0 0.0
2017-Sep-04 07:29N 43°24' E 004°51'0 0.0
2017-Sep-04 06:59N 43°24' E 004°51'0 0.0
2017-Sep-04 06:29N 43°24' E 004°51'0 0.0
2017-Sep-04 05:59N 43°24' E 004°51'0 0.0
2017-Sep-04 05:26N 43°24' E 004°51'0 0.0
2017-Sep-04 04:59N 43°24' E 004°51'0 0.0
2017-Sep-04 04:30N 43°24' E 004°51'0 0.0
2017-Sep-04 03:59N 43°24' E 004°51'0 0.0
2017-Sep-04 03:23N 43°24' E 004°51'0 0.0
2017-Sep-04 03:00N 43°24' E 004°51'0 0.0
2017-Sep-04 02:29N 43°24' E 004°51'0 0.0
2017-Sep-04 02:00N 43°24' E 004°51'0 0.0
2017-Sep-04 01:29N 43°24' E 004°51'0 0.0
2017-Sep-04 01:00N 43°24' E 004°51'0 0.0
2017-Sep-04 00:30N 43°24' E 004°51'0 0.0
2017-Sep-04 00:00N 43°24' E 004°51'0 0.0
2017-Sep-03 23:29N 43°24' E 004°51'0 0.0
2017-Sep-03 22:59N 43°24' E 004°51'0 0.0
2017-Sep-03 22:30N 43°24' E 004°51'0 0.0
2017-Sep-03 21:59N 43°24' E 004°51'0 0.0
2017-Sep-03 21:29N 43°24' E 004°51'0 0.0
2017-Sep-03 20:59N 43°24' E 004°51'0 0.0
2017-Sep-03 20:29N 43°24' E 004°51'0 0.0
2017-Sep-03 19:59N 43°24' E 004°51'0 0.0
2017-Sep-03 19:29N 43°24' E 004°51'0 0.0
2017-Sep-03 18:56N 43°24' E 004°51'0 0.0
2017-Sep-03 18:26N 43°24' E 004°51'0 0.0
2017-Sep-03 17:59N 43°24' E 004°51'0 0.0
2017-Sep-03 17:29N 43°24' E 004°51'0 0.0
2017-Sep-03 16:56N 43°24' E 004°51'0 0.0
2017-Sep-03 16:26N 43°24' E 004°51'0 0.0
2017-Sep-03 15:59N 43°24' E 004°51'0 0.0
2017-Sep-03 15:29N 43°24' E 004°51'0 0.0
2017-Sep-03 14:59N 43°24' E 004°51'0 0.0
2017-Sep-03 13:59N 43°24' E 004°51'0 0.0
2017-Sep-03 13:30N 43°24' E 004°51'0 0.0
2017-Sep-03 12:59N 43°24' E 004°51'0 0.0
2017-Sep-03 12:29N 43°24' E 004°51'0 0.0
2017-Sep-03 11:59N 43°24' E 004°51'0 0.0
2017-Sep-03 11:30N 43°24' E 004°51'0 0.0
2017-Sep-03 10:59N 43°24' E 004°51'0 0.0
2017-Sep-03 10:26N 43°24' E 004°51'0 0.0
2017-Sep-03 10:00N 43°24' E 004°51'0 0.0
2017-Sep-03 09:29N 43°24' E 004°51'0 0.0
2017-Sep-03 08:56N 43°24' E 004°51'0 0.0
2017-Sep-03 08:29N 43°24' E 004°51'0 0.0
2017-Sep-03 07:59N 43°24' E 004°51'0 0.0
2017-Sep-03 07:29N 43°24' E 004°51'0 0.0
2017-Sep-03 06:59N 43°24' E 004°51'0 0.0
2017-Sep-03 06:30N 43°24' E 004°51'0 0.0
2017-Sep-03 05:59N 43°24' E 004°51'0 0.0
2017-Sep-03 05:30N 43°24' E 004°51'0 0.0
2017-Sep-03 05:00N 43°24' E 004°51'0 0.0
2017-Sep-03 04:29N 43°24' E 004°51'0 0.0
2017-Sep-03 03:56N 43°24' E 004°51'0 0.0
2017-Sep-03 03:29N 43°24' E 004°51'0 0.0
2017-Sep-03 02:59N 43°24' E 004°51'0 0.0
2017-Sep-03 02:29N 43°24' E 004°51'0 0.0
2017-Sep-03 01:59N 43°24' E 004°51'0 0.0
2017-Sep-03 01:29N 43°24' E 004°51'0 0.0
2017-Sep-03 01:00N 43°24' E 004°51'0 0.0
2017-Sep-03 00:29N 43°24' E 004°51'0 0.0
2017-Sep-02 23:59N 43°24' E 004°51'0 0.0
2017-Sep-02 23:29N 43°24' E 004°51'0 0.0
2017-Sep-02 22:59N 43°24' E 004°51'0 0.0
2017-Sep-02 22:29N 43°24' E 004°51'0 0.0
2017-Sep-02 21:56N 43°24' E 004°51'0 0.0
2017-Sep-02 21:29N 43°24' E 004°51'0 0.0
2017-Sep-02 20:59N 43°24' E 004°51'0 0.0
2017-Sep-02 20:29N 43°24' E 004°51'0 0.0
2017-Sep-02 19:59N 43°24' E 004°51'0 0.0
2017-Sep-02 19:29N 43°24' E 004°51'0 0.0
2017-Sep-02 18:59N 43°24' E 004°51'0 0.0
2017-Sep-02 18:29N 43°24' E 004°51'0 0.0
2017-Sep-02 18:00N 43°24' E 004°51'0 0.0
2017-Sep-02 17:29N 43°24' E 004°51'0 0.0
2017-Sep-02 16:59N 43°24' E 004°51'0 0.0
2017-Sep-02 16:29N 43°24' E 004°51'0 0.0
2017-Sep-02 15:59N 43°24' E 004°51'0 0.0
2017-Sep-02 15:29N 43°24' E 004°51'0 0.0
2017-Sep-02 14:56N 43°24' E 004°51'0 0.0
2017-Sep-02 14:29N 43°24' E 004°51'0 0.0
2017-Sep-02 13:59N 43°24' E 004°51'0 0.0
2017-Sep-02 13:26N 43°24' E 004°51'0 0.0
2017-Sep-02 12:56N 43°24' E 004°51'0 0.0
2017-Sep-02 12:29N 43°24' E 004°51'0 0.0
2017-Sep-02 11:56N 43°24' E 004°51'0 0.0
2017-Sep-02 11:23N 43°24' E 004°51'0 0.0
2017-Sep-02 11:00N 43°24' E 004°51'0 0.0
2017-Sep-02 10:29N 43°24' E 004°51'0 0.0
2017-Sep-02 10:00N 43°24' E 004°51'0 0.0
2017-Sep-02 09:29N 43°24' E 004°51'0 0.0
2017-Sep-02 08:59N 43°24' E 004°51'0 0.0
2017-Sep-02 08:30N 43°24' E 004°51'0 0.0
2017-Sep-02 08:00N 43°24' E 004°51'0 0.0
2017-Sep-02 07:29N 43°24' E 004°51'  
Track history (hours):
 
Tides and Currents Weather Stations Pressure Air Temp Water Temp Dewpoint Dewpoint Depression Visibility Wind Speed Wind Dir Waves Ship Positions

Seas 11

Last reported at 2017-Sep-12 07:25 UTC. Time now 2017-Sep-22 04:42 UTC.
Position N 30°21' E 032°22'.
Warning: this ship's position is 9 days out of date.

Length 190 m; draft 10.4 m.

Type: Cargo ship. MMSI: 636015294.

Date/timePositionNaut miles runAvg speedWind from/ knotsBaromVisibWave heightAir tempDewpointWater temp
2017-Sep-12 07:25N 30°21' E 032°22'0 0.0
2017-Sep-12 07:00N 30°21' E 032°22'0 0.0
2017-Sep-12 06:30N 30°21' E 032°22'0 0.1
2017-Sep-12 06:00N 30°21' E 032°22'0 0.0
2017-Sep-12 05:30N 30°21' E 032°22'0 0.2
2017-Sep-12 05:00N 30°21' E 032°22'4 5.7
2017-Sep-12 04:15N 30°25' E 032°21'310.5
2017-Sep-12 04:00N 30°28' E 032°21'510.4
2017-Sep-12 03:31N 30°33' E 032°19'6 6.2
2017-Sep-12 02:34N 30°38' E 032°20'4 9.0
2017-Sep-12 02:08N 30°42' E 032°21'1 8.9
2017-Sep-12 02:00N 30°43' E 032°20'5 8.7
2017-Sep-12 01:28N 30°48' E 032°19'18 9.2
2017-Sep-11 23:29N 31°06' E 032°19'16 8.7
2017-Sep-11 21:36N 31°22' E 032°23'1 6.4
2017-Sep-11 21:30N 31°23' E 032°23'3 3.7
2017-Sep-11 20:43N 31°22' E 032°19'1 3.0
2017-Sep-11 20:30N 31°22' E 032°19'0 0.5
2017-Sep-11 20:00N 31°22' E 032°19'0 0.0
2017-Sep-11 19:30N 31°22' E 032°19'0 0.0
2017-Sep-11 19:00N 31°22' E 032°19'0 0.0
2017-Sep-11 18:25N 31°22' E 032°19'0 0.0
2017-Sep-11 16:51N 31°22' E 032°19'0 0.0
2017-Sep-11 16:30N 31°22' E 032°19'0 0.0
2017-Sep-11 15:59N 31°22' E 032°19'0 0.0
2017-Sep-11 15:30N 31°22' E 032°19'0 0.0
2017-Sep-11 15:00N 31°22' E 032°19'0 0.0
2017-Sep-11 14:30N 31°22' E 032°19'0 0.0
2017-Sep-11 14:00N 31°22' E 032°19'0 0.2
2017-Sep-11 13:30N 31°22' E 032°19'1 2.2
2017-Sep-11 13:00N 31°22' E 032°20'2 2.3
2017-Sep-11 12:15N 31°24' E 032°21'1 3.5
2017-Sep-11 11:55N 31°25' E 032°21'3 6.5
2017-Sep-11 11:27N 31°28' E 032°20'3 5.9
2017-Sep-11 11:01N 31°30' E 032°18'510.2
2017-Sep-11 10:30N 31°32' E 032°13'611.0
2017-Sep-11 10:00N 31°36' E 032°08'4 8.6
2017-Sep-11 09:30N 31°39' E 032°05'611.5
2017-Sep-11 09:00N 31°43' E 031°60'612.3
2017-Sep-11 08:29N 31°47' E 031°54'813.0
2017-Sep-11 07:53N 31°51' E 031°46'712.9
2017-Sep-11 07:23N 31°55' E 031°40'512.9
2017-Sep-11 06:59N 31°57' E 031°35'612.8
2017-Sep-11 06:30N 32°01' E 031°29'612.5
2017-Sep-11 06:00N 32°04' E 031°22'612.4
2017-Sep-11 05:30N 32°07' E 031°16'612.4
2017-Sep-11 04:59N 32°11' E 031°10'1212.4
2017-Sep-11 04:01N 32°17' E 030°58'013.3
2017-Sep-11 04:00N 32°17' E 030°57'613.1
2017-Sep-11 03:30N 32°18' E 030°50'1013.2
2017-Sep-11 02:46N 32°21' E 030°39'413.2
2017-Sep-11 02:29N 32°22' E 030°34'613.0
2017-Sep-11 02:00N 32°23' E 030°27'613.0
2017-Sep-11 01:30N 32°24' E 030°20'1212.8
2017-Sep-11 00:32N 32°26' E 030°05'012.6
2017-Sep-11 00:30N 32°27' E 030°05'1412.6
2017-Sep-10 23:25N 32°29' E 029°49'  
2017-Sep-08 09:47N 35°48' E 014°58'312.5
2017-Sep-08 09:30N 35°49' E 014°54'611.1
2017-Sep-08 08:59N 35°53' E 014°49'2 2.2
2017-Sep-08 08:06N 35°54' E 014°47'0 0.0
2017-Sep-08 08:00N 35°54' E 014°47'0 0.0
2017-Sep-08 07:30N 35°54' E 014°47'0 0.1
2017-Sep-08 06:57N 35°54' E 014°47'0 0.1
2017-Sep-08 06:27N 35°54' E 014°47'0 0.1
2017-Sep-08 06:00N 35°54' E 014°47'0 0.1
2017-Sep-08 05:30N 35°54' E 014°47'0 0.1
2017-Sep-08 05:00N 35°54' E 014°47'0 0.1
2017-Sep-08 04:30N 35°54' E 014°47'0 0.1
2017-Sep-08 04:00N 35°54' E 014°47'0 0.3
2017-Sep-08 03:30N 35°54' E 014°47'0 0.7
2017-Sep-08 02:57N 35°54' E 014°47'2 4.7
2017-Sep-08 02:30N 35°56' E 014°47'4 6.5
2017-Sep-08 01:57N 35°59' E 014°44'510.9
2017-Sep-08 01:28N 36°03' E 014°39'611.2
2017-Sep-08 00:58N 36°07' E 014°34'612.5
2017-Sep-08 00:30N 36°10' E 014°28'713.0
2017-Sep-08 00:00N 36°14' E 014°21'713.2
2017-Sep-07 23:30N 36°16' E 014°14'612.9
2017-Sep-07 23:00N 36°18' E 014°07'612.9
2017-Sep-07 22:30N 36°21' E 013°59'712.9
2017-Sep-07 21:59N 36°24' E 013°52'612.9
2017-Sep-07 21:30N 36°27' E 013°45'612.9
2017-Sep-07 21:00N 36°29' E 013°37'612.6
2017-Sep-07 20:30N 36°32' E 013°30'712.7
2017-Sep-07 19:58N 36°34' E 013°22'712.6
2017-Sep-07 19:25N 36°37' E 013°14'512.6
2017-Sep-07 19:00N 36°39' E 013°08'612.5
2017-Sep-07 18:30N 36°42' E 013°01'612.4
2017-Sep-07 18:00N 36°44' E 012°54'612.5
2017-Sep-07 17:30N 36°47' E 012°47'612.6
2017-Sep-07 17:00N 36°49' E 012°40'612.6
2017-Sep-07 16:30N 36°52' E 012°33'712.9
2017-Sep-07 15:58N 36°55' E 012°25'613.1
2017-Sep-07 15:30N 36°57' E 012°18'19912.9
2017-Sep-07 00:07N 38°20' E 008°30'212.7
2017-Sep-06 23:58N 38°21' E 008°28'22312.6
2017-Sep-06 06:16N 41°34' E 006°01'513.3
2017-Sep-06 05:55N 41°38' E 005°59'613.3
2017-Sep-06 05:29N 41°44' E 005°56'613.3
2017-Sep-06 05:00N 41°49' E 005°52'713.3
2017-Sep-06 04:30N 41°55' E 005°49'2113.5
2017-Sep-06 02:59N 42°14' E 005°37'713.5
2017-Sep-06 02:27N 42°21' E 005°33'613.6
2017-Sep-06 02:00N 42°26' E 005°30'713.5
2017-Sep-06 01:30N 42°32' E 005°26'713.3
2017-Sep-06 01:00N 42°38' E 005°22'613.1
2017-Sep-06 00:31N 42°44' E 005°18'713.1
2017-Sep-06 00:01N 42°50' E 005°15'612.8
2017-Sep-05 23:30N 42°56' E 005°11'713.2
2017-Sep-05 23:01N 43°02' E 005°07'713.2
2017-Sep-05 22:30N 43°08' E 005°04'612.0
2017-Sep-05 22:00N 43°14' E 005°00'510.1
2017-Sep-05 21:30N 43°19' E 004°59'4 8.8
2017-Sep-05 21:00N 43°23' E 004°57'4 8.7
2017-Sep-05 20:30N 43°24' E 004°51'0 0.9
2017-Sep-05 19:56N 43°24' E 004°51'0 0.0
2017-Sep-05 19:29N 43°24' E 004°51'0 0.0
2017-Sep-05 18:59N 43°24' E 004°51'0 0.0
2017-Sep-05 18:29N 43°24' E 004°51'0 0.0
2017-Sep-05 17:59N 43°24' E 004°51'0 0.0
2017-Sep-05 17:29N 43°24' E 004°51'0 0.0
2017-Sep-05 16:53N 43°24' E 004°51'0 0.0
2017-Sep-05 16:29N 43°24' E 004°51'0 0.0
2017-Sep-05 15:59N 43°24' E 004°51'0 0.0
2017-Sep-05 15:29N 43°24' E 004°51'0 0.0
2017-Sep-05 14:59N 43°24' E 004°51'0 0.0
2017-Sep-05 14:29N 43°24' E 004°51'0 0.0
2017-Sep-05 14:00N 43°24' E 004°51'0 0.0
2017-Sep-05 13:29N 43°24' E 004°51'0 0.0
2017-Sep-05 12:59N 43°24' E 004°51'0 0.0
2017-Sep-05 12:29N 43°24' E 004°51'0 0.0
2017-Sep-05 11:59N 43°24' E 004°51'0 0.0
2017-Sep-05 11:26N 43°24' E 004°51'0 0.0
2017-Sep-05 10:56N 43°24' E 004°51'0 0.0
2017-Sep-05 10:29N 43°24' E 004°51'0 0.0
2017-Sep-05 09:59N 43°24' E 004°51'0 0.0
2017-Sep-05 09:26N 43°24' E 004°51'0 0.0
2017-Sep-05 08:59N 43°24' E 004°51'0 0.0
2017-Sep-05 08:29N 43°24' E 004°51'0 0.0
2017-Sep-05 07:59N 43°24' E 004°51'0 0.0
2017-Sep-05 07:29N 43°24' E 004°51'0 0.0
2017-Sep-05 06:59N 43°24' E 004°51'0 0.0
2017-Sep-05 06:29N 43°24' E 004°51'0 0.0
2017-Sep-05 05:59N 43°24' E 004°51'0 0.0
2017-Sep-05 05:29N 43°24' E 004°51'0 0.0
2017-Sep-05 04:59N 43°24' E 004°51'0 0.0
2017-Sep-05 04:29N 43°24' E 004°51'0 0.0
2017-Sep-05 03:59N 43°24' E 004°51'0 0.0
2017-Sep-05 03:29N 43°24' E 004°51'0 0.0
2017-Sep-05 02:59N 43°24' E 004°51'0 0.0
2017-Sep-05 02:26N 43°24' E 004°51'0 0.0
2017-Sep-05 01:59N 43°24' E 004°51'0 0.0
2017-Sep-05 01:26N 43°24' E 004°51'0 0.0
2017-Sep-05 00:59N 43°24' E 004°51'0 0.0
2017-Sep-05 00:29N 43°24' E 004°51'0 0.0
2017-Sep-04 23:56N 43°24' E 004°51'0 0.0
2017-Sep-04 23:30N 43°24' E 004°51'0 0.0
2017-Sep-04 22:59N 43°24' E 004°51'0 0.0
2017-Sep-04 22:29N 43°24' E 004°51'0 0.0
2017-Sep-04 21:56N 43°24' E 004°51'0 0.0
2017-Sep-04 21:29N 43°24' E 004°51'0 0.0
2017-Sep-04 20:56N 43°24' E 004°51'0 0.0
2017-Sep-04 20:29N 43°24' E 004°51'0 0.0
2017-Sep-04 19:56N 43°24' E 004°51'0 0.0
2017-Sep-04 19:29N 43°24' E 004°51'0 0.0
2017-Sep-04 18:56N 43°24' E 004°51'0 0.0
2017-Sep-04 18:26N 43°24' E 004°51'0 0.0
2017-Sep-04 17:59N 43°24' E 004°51'0 0.0
2017-Sep-04 17:26N 43°24' E 004°51'0 0.0
2017-Sep-04 16:59N 43°24' E 004°51'0 0.0
2017-Sep-04 16:29N 43°24' E 004°51'0 0.0
2017-Sep-04 15:59N 43°24' E 004°51'0 0.0
2017-Sep-04 15:29N 43°24' E 004°51'0 0.0
2017-Sep-04 14:59N 43°24' E 004°51'0 0.0
2017-Sep-04 14:26N 43°24' E 004°51'0 0.0
2017-Sep-04 13:59N 43°24' E 004°51'0 0.0
2017-Sep-04 13:29N 43°24' E 004°51'0 0.0
2017-Sep-04 12:59N 43°24' E 004°51'0 0.0
2017-Sep-04 12:29N 43°24' E 004°51'0 0.0
2017-Sep-04 11:59N 43°24' E 004°51'0 0.0
2017-Sep-04 11:29N 43°24' E 004°51'0 0.0
2017-Sep-04 10:59N 43°24' E 004°51'0 0.0
2017-Sep-04 10:29N 43°24' E 004°51'0 0.0
2017-Sep-04 09:59N 43°24' E 004°51'0 0.0
2017-Sep-04 09:29N 43°24' E 004°51'0 0.0
2017-Sep-04 08:59N 43°24' E 004°51'0 0.0
2017-Sep-04 08:29N 43°24' E 004°51'0 0.0
2017-Sep-04 07:59N 43°24' E 004°51'0 0.0
2017-Sep-04 07:29N 43°24' E 004°51'0 0.0
2017-Sep-04 06:59N 43°24' E 004°51'0 0.0
2017-Sep-04 06:29N 43°24' E 004°51'0 0.0
2017-Sep-04 05:59N 43°24' E 004°51'0 0.0
2017-Sep-04 05:26N 43°24' E 004°51'0 0.0
2017-Sep-04 04:59N 43°24' E 004°51'0 0.0
2017-Sep-04 04:30N 43°24' E 004°51'0 0.0
2017-Sep-04 03:59N 43°24' E 004°51'0 0.0
2017-Sep-04 03:23N 43°24' E 004°51'0 0.0
2017-Sep-04 03:00N 43°24' E 004°51'0 0.0
2017-Sep-04 02:29N 43°24' E 004°51'0 0.0
2017-Sep-04 02:00N 43°24' E 004°51'0 0.0
2017-Sep-04 01:29N 43°24' E 004°51'0 0.0
2017-Sep-04 01:00N 43°24' E 004°51'0 0.0
2017-Sep-04 00:30N 43°24' E 004°51'0 0.0
2017-Sep-04 00:00N 43°24' E 004°51'0 0.0
2017-Sep-03 23:29N 43°24' E 004°51'0 0.0
2017-Sep-03 22:59N 43°24' E 004°51'0 0.0
2017-Sep-03 22:30N 43°24' E 004°51'0 0.0
2017-Sep-03 21:59N 43°24' E 004°51'0 0.0
2017-Sep-03 21:29N 43°24' E 004°51'0 0.0
2017-Sep-03 20:59N 43°24' E 004°51'0 0.0
2017-Sep-03 20:29N 43°24' E 004°51'0 0.0
2017-Sep-03 19:59N 43°24' E 004°51'0 0.0
2017-Sep-03 19:29N 43°24' E 004°51'0 0.0
2017-Sep-03 18:56N 43°24' E 004°51'0 0.0
2017-Sep-03 18:26N 43°24' E 004°51'0 0.0
2017-Sep-03 17:59N 43°24' E 004°51'0 0.0
2017-Sep-03 17:29N 43°24' E 004°51'0 0.0
2017-Sep-03 16:56N 43°24' E 004°51'0 0.0
2017-Sep-03 16:26N 43°24' E 004°51'0 0.0
2017-Sep-03 15:59N 43°24' E 004°51'0 0.0
2017-Sep-03 15:29N 43°24' E 004°51'0 0.0
2017-Sep-03 14:59N 43°24' E 004°51'0 0.0
2017-Sep-03 13:59N 43°24' E 004°51'0 0.0
2017-Sep-03 13:30N 43°24' E 004°51'0 0.0
2017-Sep-03 12:59N 43°24' E 004°51'0 0.0
2017-Sep-03 12:29N 43°24' E 004°51'0 0.0
2017-Sep-03 11:59N 43°24' E 004°51'0 0.0
2017-Sep-03 11:30N 43°24' E 004°51'0 0.0
2017-Sep-03 10:59N 43°24' E 004°51'0 0.0
2017-Sep-03 10:26N 43°24' E 004°51'0 0.0
2017-Sep-03 10:00N 43°24' E 004°51'0 0.0
2017-Sep-03 09:29N 43°24' E 004°51'0 0.0
2017-Sep-03 08:56N 43°24' E 004°51'0 0.0
2017-Sep-03 08:29N 43°24' E 004°51'0 0.0
2017-Sep-03 07:59N 43°24' E 004°51'0 0.0
2017-Sep-03 07:29N 43°24' E 004°51'0 0.0
2017-Sep-03 06:59N 43°24' E 004°51'0 0.0
2017-Sep-03 06:30N 43°24' E 004°51'0 0.0
2017-Sep-03 05:59N 43°24' E 004°51'0 0.0
2017-Sep-03 05:30N 43°24' E 004°51'0 0.0
2017-Sep-03 05:00N 43°24' E 004°51'0 0.0
2017-Sep-03 04:29N 43°24' E 004°51'0 0.0
2017-Sep-03 03:56N 43°24' E 004°51'0 0.0
2017-Sep-03 03:29N 43°24' E 004°51'0 0.0
2017-Sep-03 02:59N 43°24' E 004°51'0 0.0
2017-Sep-03 02:29N 43°24' E 004°51'0 0.0
2017-Sep-03 01:59N 43°24' E 004°51'0 0.0
2017-Sep-03 01:29N 43°24' E 004°51'0 0.0
2017-Sep-03 01:00N 43°24' E 004°51'0 0.0
2017-Sep-03 00:29N 43°24' E 004°51'0 0.0
2017-Sep-02 23:59N 43°24' E 004°51'0 0.0
2017-Sep-02 23:29N 43°24' E 004°51'0 0.0
2017-Sep-02 22:59N 43°24' E 004°51'0 0.0
2017-Sep-02 22:29N 43°24' E 004°51'0 0.0
2017-Sep-02 21:56N 43°24' E 004°51'0 0.0
2017-Sep-02 21:29N 43°24' E 004°51'0 0.0
2017-Sep-02 20:59N 43°24' E 004°51'0 0.0
2017-Sep-02 20:29N 43°24' E 004°51'0 0.0
2017-Sep-02 19:59N 43°24' E 004°51'0 0.0
2017-Sep-02 19:29N 43°24' E 004°51'0 0.0
2017-Sep-02 18:59N 43°24' E 004°51'0 0.0
2017-Sep-02 18:29N 43°24' E 004°51'0 0.0
2017-Sep-02 18:00N 43°24' E 004°51'0 0.0
2017-Sep-02 17:29N 43°24' E 004°51'0 0.0
2017-Sep-02 16:59N 43°24' E 004°51'0 0.0
2017-Sep-02 16:29N 43°24' E 004°51'0 0.0
2017-Sep-02 15:59N 43°24' E 004°51'0 0.0
2017-Sep-02 15:29N 43°24' E 004°51'0 0.0
2017-Sep-02 14:56N 43°24' E 004°51'0 0.0
2017-Sep-02 14:29N 43°24' E 004°51'0 0.0
2017-Sep-02 13:59N 43°24' E 004°51'0 0.0
2017-Sep-02 13:26N 43°24' E 004°51'0 0.0
2017-Sep-02 12:56N 43°24' E 004°51'0 0.0
2017-Sep-02 12:29N 43°24' E 004°51'0 0.0
2017-Sep-02 11:56N 43°24' E 004°51'0 0.0
2017-Sep-02 11:23N 43°24' E 004°51'0 0.0
2017-Sep-02 11:00N 43°24' E 004°51'0 0.0
2017-Sep-02 10:29N 43°24' E 004°51'0 0.0
2017-Sep-02 10:00N 43°24' E 004°51'0 0.0
2017-Sep-02 09:29N 43°24' E 004°51'0 0.0
2017-Sep-02 08:59N 43°24' E 004°51'0 0.0
2017-Sep-02 08:30N 43°24' E 004°51'0 0.0
2017-Sep-02 08:00N 43°24' E 004°51'0 0.0
2017-Sep-02 07:29N 43°24' E 004°51'  

Dump ship's entire track history